createdAt,value
2018-08-11T00:00:31.504Z,16.30
2018-08-11T00:01:31.470Z,16.27
2018-08-11T00:02:31.442Z,16.37
2018-08-11T00:03:31.460Z,16.33
2018-08-11T00:04:31.396Z,16.33
2018-08-11T00:05:31.371Z,16.40
2018-08-11T00:06:31.349Z,16.47
2018-08-11T00:07:31.317Z,16.49
2018-08-11T00:08:31.339Z,16.57
2018-08-11T00:09:31.272Z,16.63
2018-08-11T00:10:31.301Z,16.70
2018-08-11T00:11:31.221Z,16.76
2018-08-11T00:12:31.196Z,16.69
2018-08-11T00:13:31.166Z,16.77
2018-08-11T00:14:31.141Z,16.82
2018-08-11T00:15:31.173Z,16.82
2018-08-11T00:16:31.095Z,16.90
2018-08-11T00:17:31.066Z,16.91
2018-08-11T00:18:31.056Z,16.88
2018-08-11T00:19:31.016Z,16.99
2018-08-11T00:20:31.051Z,17.06
2018-08-11T00:21:30.966Z,17.10
2018-08-11T00:22:30.939Z,17.10
2018-08-11T00:23:30.921Z,17.09
2018-08-11T00:24:30.889Z,17.20
2018-08-11T00:25:30.907Z,17.20
2018-08-11T00:26:30.838Z,17.20
2018-08-11T00:27:30.812Z,17.25
2018-08-11T00:28:30.836Z,17.21
2018-08-11T00:29:30.764Z,17.18
2018-08-11T00:30:30.736Z,17.21
2018-08-11T00:31:30.715Z,17.13
2018-08-11T00:32:30.692Z,17.17
2018-08-11T00:33:30.710Z,17.22
2018-08-11T00:34:30.644Z,17.17
2018-08-11T00:35:30.617Z,17.17
2018-08-11T00:36:30.676Z,17.10
2018-08-11T00:37:30.565Z,17.13
2018-08-11T00:38:30.596Z,17.12
2018-08-11T00:39:30.522Z,17.10
2018-08-11T00:40:30.490Z,17.09
2018-08-11T00:41:30.468Z,17.10
2018-08-11T00:42:30.438Z,17.05
2018-08-11T00:43:30.459Z,17.03
2018-08-11T00:44:30.438Z,17.12
2018-08-11T00:45:30.412Z,17.07
2018-08-11T00:46:30.341Z,17.00
2018-08-11T00:47:30.321Z,17.02
2018-08-11T00:48:30.298Z,16.95
2018-08-11T00:49:30.296Z,16.97
2018-08-11T00:50:30.290Z,17.02
2018-08-11T00:51:30.218Z,16.92
2018-08-11T00:52:30.202Z,16.87
2018-08-11T00:53:30.168Z,16.94
2018-08-11T00:54:30.144Z,16.90
2018-08-11T00:55:30.166Z,17.00
2018-08-11T00:56:30.099Z,16.95
2018-08-11T00:57:30.071Z,17.02
2018-08-11T00:58:30.047Z,16.97
2018-08-11T00:59:30.020Z,17.03
2018-08-11T01:00:30.048Z,16.97
2018-08-11T01:01:29.971Z,17.02
2018-08-11T01:02:30.054Z,17.07
2018-08-11T01:03:29.962Z,17.09
2018-08-11T01:04:29.901Z,17.10
2018-08-11T01:05:29.920Z,17.10
2018-08-11T01:06:29.841Z,17.10
2018-08-11T01:07:29.819Z,17.09
2018-08-11T01:08:29.795Z,17.05
2018-08-11T01:09:29.771Z,17.10
2018-08-11T01:10:29.787Z,17.07
2018-08-11T01:11:29.765Z,17.07
2018-08-11T01:12:29.697Z,17.06
2018-08-11T01:13:29.666Z,17.03
2018-08-11T01:14:29.643Z,16.99
2018-08-11T01:15:29.679Z,17.00
2018-08-11T01:16:29.617Z,17.00
2018-08-11T01:17:29.588Z,17.00
2018-08-11T01:18:29.544Z,16.94
2018-08-11T01:19:29.537Z,16.94
2018-08-11T01:20:29.541Z,16.97
2018-08-11T01:21:29.468Z,16.91
2018-08-11T01:22:29.447Z,16.95
2018-08-11T01:23:29.425Z,17.02
2018-08-11T01:24:29.400Z,16.87
2018-08-11T01:25:29.428Z,16.88
2018-08-11T01:26:29.344Z,16.84
2018-08-11T01:27:29.320Z,16.84
2018-08-11T01:28:29.294Z,16.87
2018-08-11T01:29:29.271Z,16.80
2018-08-11T01:30:29.297Z,16.80
2018-08-11T01:31:29.269Z,16.72
2018-08-11T01:32:29.201Z,16.70
2018-08-11T01:33:29.678Z,16.74
2018-08-11T01:34:29.145Z,16.74
2018-08-11T01:35:29.122Z,16.73
2018-08-11T01:36:29.144Z,16.73
2018-08-11T01:37:29.678Z,16.74
2018-08-11T01:38:29.052Z,16.66
2018-08-11T01:39:29.024Z,16.65
2018-08-11T01:40:28.998Z,16.67
2018-08-11T01:41:29.234Z,16.58
2018-08-11T01:42:28.947Z,16.65
2018-08-11T01:43:28.925Z,16.66
2018-08-11T01:44:28.897Z,16.72
2018-08-11T01:45:28.872Z,16.70
2018-08-11T01:46:28.891Z,16.62
2018-08-11T01:47:28.874Z,16.51
2018-08-11T01:48:28.801Z,16.55
2018-08-11T01:49:28.775Z,16.49
2018-08-11T01:50:28.756Z,16.51
2018-08-11T01:51:28.719Z,16.49
2018-08-11T01:52:28.740Z,16.49
2018-08-11T01:53:28.668Z,16.45
2018-08-11T01:54:28.645Z,16.44
2018-08-11T01:55:28.623Z,16.37
2018-08-11T01:56:28.641Z,16.40
2018-08-11T01:57:28.618Z,16.44
2018-08-11T01:58:28.595Z,16.40
2018-08-11T01:59:28.516Z,16.32
2018-08-11T02:00:28.492Z,16.34
2018-08-11T02:01:28.470Z,16.27
2018-08-11T02:02:28.443Z,16.29
2018-08-11T02:03:28.467Z,16.21
2018-08-11T02:04:28.393Z,16.32
2018-08-11T02:05:28.368Z,16.22
2018-08-11T02:06:28.348Z,16.22
2018-08-11T02:07:28.323Z,16.21
2018-08-11T02:08:28.335Z,16.18
2018-08-11T02:09:28.262Z,16.18
2018-08-11T02:10:29.184Z,16.17
2018-08-11T02:11:28.219Z,16.18
2018-08-11T02:12:28.193Z,16.13
2018-08-11T02:13:28.244Z,16.16
2018-08-11T02:14:28.140Z,16.07
2018-08-11T02:15:28.689Z,16.04
2018-08-11T02:16:28.090Z,16.08
2018-08-11T02:17:28.064Z,16.00
2018-08-11T02:18:28.087Z,16.07
2018-08-11T02:19:28.242Z,16.06
2018-08-11T02:20:27.992Z,16.07
2018-08-11T02:21:28.689Z,16.14
2018-08-11T02:22:27.938Z,16.22
2018-08-11T02:23:27.914Z,16.29
2018-08-11T02:24:27.940Z,16.29
2018-08-11T02:25:27.925Z,16.37
2018-08-11T02:26:27.838Z,16.40
2018-08-11T02:27:27.811Z,16.40
2018-08-11T02:28:28.245Z,16.44
2018-08-11T02:29:27.759Z,16.45
2018-08-11T02:30:27.739Z,16.40
2018-08-11T02:31:28.700Z,16.42
2018-08-11T02:32:27.687Z,16.49
2018-08-11T02:33:27.714Z,16.52
2018-08-11T02:34:27.739Z,16.52
2018-08-11T02:35:27.628Z,16.49
2018-08-11T02:36:28.199Z,16.62
2018-08-11T02:37:27.563Z,16.65
2018-08-11T02:38:27.580Z,16.66
2018-08-11T02:39:28.192Z,16.70
2018-08-11T02:40:27.538Z,16.72
2018-08-11T02:41:27.455Z,16.76
2018-08-11T02:42:28.190Z,16.66
2018-08-11T02:43:27.406Z,16.76
2018-08-11T02:44:27.427Z,16.84
2018-08-11T02:45:27.750Z,16.84
2018-08-11T02:46:27.332Z,16.85
2018-08-11T02:47:27.311Z,17.00
2018-08-11T02:48:28.195Z,16.88
2018-08-11T02:49:27.257Z,16.90
2018-08-11T02:50:27.255Z,16.91
2018-08-11T02:51:27.240Z,16.92
2018-08-11T02:52:27.181Z,17.05
2018-08-11T02:53:27.153Z,17.02
2018-08-11T02:54:27.695Z,17.02
2018-08-11T02:55:27.125Z,16.99
2018-08-11T02:56:27.133Z,17.02
2018-08-11T02:57:27.711Z,17.03
2018-08-11T02:58:27.046Z,17.06
2018-08-11T02:59:27.696Z,17.00
2018-08-11T03:00:27.033Z,16.91
2018-08-11T03:01:26.956Z,17.03
2018-08-11T03:02:27.719Z,17.05
2018-08-11T03:03:26.922Z,17.00
2018-08-11T03:04:26.938Z,17.03
2018-08-11T03:05:26.859Z,17.03
2018-08-11T03:06:27.254Z,17.03
2018-08-11T03:07:26.812Z,17.02
2018-08-11T03:08:26.790Z,17.07
2018-08-11T03:09:26.762Z,17.02
2018-08-11T03:10:27.701Z,16.91
2018-08-11T03:11:26.759Z,17.02
2018-08-11T03:12:26.691Z,16.91
2018-08-11T03:13:26.753Z,16.95
2018-08-11T03:14:26.642Z,16.94
2018-08-11T03:15:27.200Z,16.94
2018-08-11T03:16:26.589Z,16.92
2018-08-11T03:17:26.563Z,16.87
2018-08-11T03:18:26.603Z,16.84
2018-08-11T03:19:26.516Z,16.85
2018-08-11T03:20:26.540Z,16.80
2018-08-11T03:21:26.464Z,16.67
2018-08-11T03:22:26.481Z,16.80
2018-08-11T03:23:26.770Z,16.77
2018-08-11T03:24:26.391Z,16.84
2018-08-11T03:25:26.367Z,16.74
2018-08-11T03:26:26.339Z,16.70
2018-08-11T03:27:27.202Z,16.73
2018-08-11T03:28:26.338Z,16.69
2018-08-11T03:29:26.265Z,16.69
2018-08-11T03:30:26.239Z,16.72
2018-08-11T03:31:27.207Z,16.66
2018-08-11T03:32:26.244Z,16.62
2018-08-11T03:33:26.167Z,16.49
2018-08-11T03:34:26.139Z,16.52
2018-08-11T03:35:26.110Z,16.52
2018-08-11T03:36:26.700Z,16.44
2018-08-11T03:37:26.119Z,16.44
2018-08-11T03:38:26.036Z,16.37
2018-08-11T03:39:26.019Z,16.27
2018-08-11T03:40:26.710Z,16.22
2018-08-11T03:41:25.960Z,16.27
2018-08-11T03:42:25.988Z,16.17
2018-08-11T03:43:25.910Z,16.36
2018-08-11T03:44:26.273Z,16.32
2018-08-11T03:45:25.860Z,16.44
2018-08-11T03:46:25.835Z,16.44
2018-08-11T03:47:25.806Z,16.32
2018-08-11T03:48:25.786Z,16.47
2018-08-11T03:49:25.803Z,16.32
2018-08-11T03:50:26.712Z,16.27
2018-08-11T03:51:25.753Z,16.29
2018-08-11T03:52:25.730Z,16.22
2018-08-11T03:53:25.656Z,16.26
2018-08-11T03:54:26.205Z,16.13
2018-08-11T03:55:25.653Z,16.10
2018-08-11T03:56:25.587Z,16.21
2018-08-11T03:57:26.205Z,16.17
2018-08-11T03:58:25.527Z,16.13
2018-08-11T03:59:25.507Z,16.14
2018-08-11T04:00:25.526Z,16.10
2018-08-11T04:01:26.213Z,16.04
2018-08-11T04:02:25.431Z,16.10
2018-08-11T04:03:25.407Z,16.17
2018-08-11T04:04:25.377Z,16.16
2018-08-11T04:05:25.764Z,16.26
2018-08-11T04:06:25.368Z,16.29
2018-08-11T04:07:25.314Z,16.42
2018-08-11T04:08:26.210Z,16.51
2018-08-11T04:09:25.252Z,16.70
2018-08-11T04:10:25.223Z,16.65
2018-08-11T04:11:25.252Z,16.88
2018-08-11T04:12:25.711Z,16.88
2018-08-11T04:13:25.150Z,16.91
2018-08-11T04:14:25.126Z,16.88
2018-08-11T04:15:25.097Z,17.06
2018-08-11T04:16:25.115Z,17.06
2018-08-11T04:17:25.715Z,17.03
2018-08-11T04:18:25.067Z,17.07
2018-08-11T04:19:25.001Z,17.13
2018-08-11T04:20:24.971Z,17.09
2018-08-11T04:21:25.717Z,17.09
2018-08-11T04:22:24.961Z,17.07
2018-08-11T04:23:24.896Z,17.10
2018-08-11T04:24:24.866Z,17.13
2018-08-11T04:25:25.712Z,17.18
2018-08-11T04:26:24.862Z,17.10
2018-08-11T04:27:24.790Z,17.17
2018-08-11T04:28:25.273Z,17.22
2018-08-11T04:29:24.743Z,17.17
2018-08-11T04:30:25.712Z,17.25
2018-08-11T04:31:24.743Z,17.10
2018-08-11T04:32:24.683Z,17.20
2018-08-11T04:33:25.211Z,17.07
2018-08-11T04:34:24.623Z,17.07
2018-08-11T04:35:24.636Z,17.05
2018-08-11T04:36:24.767Z,17.05
2018-08-11T04:37:24.545Z,17.00
2018-08-11T04:38:24.560Z,17.02
2018-08-11T04:39:25.231Z,16.88
2018-08-11T04:40:24.474Z,16.90
2018-08-11T04:41:24.440Z,17.02
2018-08-11T04:42:24.487Z,17.02
2018-08-11T04:43:24.435Z,17.03
2018-08-11T04:44:24.368Z,17.03
2018-08-11T04:45:25.215Z,17.12
2018-08-11T04:46:24.320Z,17.12
2018-08-11T04:47:24.341Z,17.03
2018-08-11T04:48:24.306Z,17.22
2018-08-11T04:49:24.253Z,17.15
2018-08-11T04:50:24.212Z,17.30
2018-08-11T04:51:24.201Z,17.31
2018-08-11T04:52:24.259Z,17.25
2018-08-11T04:53:24.151Z,17.36
2018-08-11T04:54:24.122Z,17.38
2018-08-11T04:55:24.115Z,17.47
2018-08-11T04:56:24.723Z,17.49
2018-08-11T04:57:24.104Z,17.60
2018-08-11T04:58:24.019Z,17.65
2018-08-11T04:59:24.000Z,17.68
2018-08-11T05:00:23.973Z,17.83
2018-08-11T05:01:23.949Z,17.86
2018-08-11T05:02:23.979Z,17.95
2018-08-11T05:03:23.942Z,18.01
2018-08-11T05:04:23.876Z,18.06
2018-08-11T05:05:23.851Z,18.08
2018-08-11T05:06:23.824Z,18.17
2018-08-11T05:07:23.799Z,18.23
2018-08-11T05:08:23.819Z,18.32
2018-08-11T05:09:23.752Z,18.34
2018-08-11T05:10:23.731Z,18.34
2018-08-11T05:11:23.750Z,18.42
2018-08-11T05:12:23.678Z,18.51
2018-08-11T05:13:23.660Z,18.71
2018-08-11T05:14:23.636Z,18.69
2018-08-11T05:15:23.614Z,18.74
2018-08-11T05:16:23.632Z,18.78
2018-08-11T05:17:24.226Z,18.87
2018-08-11T05:18:23.543Z,18.94
2018-08-11T05:19:23.516Z,19.05
2018-08-11T05:20:23.539Z,18.99
2018-08-11T05:21:23.525Z,19.12
2018-08-11T05:22:23.448Z,19.15
2018-08-11T05:23:23.424Z,19.20
2018-08-11T05:24:23.398Z,19.31
2018-08-11T05:25:23.376Z,19.32
2018-08-11T05:26:23.454Z,19.30
2018-08-11T05:27:23.334Z,19.43
2018-08-11T05:28:23.311Z,19.40
2018-08-11T05:29:23.285Z,19.53
2018-08-11T05:30:23.318Z,19.50
2018-08-11T05:31:24.224Z,19.61
2018-08-11T05:32:23.213Z,19.65
2018-08-11T05:33:23.192Z,19.65
2018-08-11T05:34:23.169Z,19.68
2018-08-11T05:35:23.193Z,19.79
2018-08-11T05:36:23.728Z,19.74
2018-08-11T05:37:23.103Z,19.83
2018-08-11T05:38:23.076Z,19.90
2018-08-11T05:39:23.054Z,19.95
2018-08-11T05:40:23.284Z,20.10
2018-08-11T05:41:23.007Z,20.29
2018-08-11T05:42:22.988Z,20.34
2018-08-11T05:43:22.969Z,20.48
2018-08-11T05:44:22.943Z,20.48
2018-08-11T05:45:22.966Z,20.61
2018-08-11T05:46:22.896Z,20.64
2018-08-11T05:47:23.726Z,20.66
2018-08-11T05:48:22.854Z,20.66
2018-08-11T05:49:22.838Z,20.75
2018-08-11T05:50:22.854Z,20.86
2018-08-11T05:51:22.788Z,20.79
2018-08-11T05:52:23.776Z,20.81
2018-08-11T05:53:22.740Z,20.83
2018-08-11T05:54:22.720Z,20.94
2018-08-11T05:55:22.753Z,20.96
2018-08-11T05:56:22.680Z,21.00
2018-08-11T05:57:22.659Z,21.11
2018-08-11T05:58:22.633Z,21.13
2018-08-11T05:59:22.615Z,21.16
2018-08-11T06:00:22.641Z,21.18
2018-08-11T06:01:22.567Z,21.22
2018-08-11T06:02:22.546Z,21.28
2018-08-11T06:03:22.528Z,21.38
2018-08-11T06:04:22.506Z,21.52
2018-08-11T06:05:22.527Z,21.56
2018-08-11T06:06:22.461Z,21.67
2018-08-11T06:07:22.484Z,21.76
2018-08-11T06:08:22.421Z,21.68
2018-08-11T06:09:22.402Z,21.66
2018-08-11T06:10:22.538Z,21.83
2018-08-11T06:11:22.356Z,21.94
2018-08-11T06:12:22.331Z,22.09
2018-08-11T06:13:22.311Z,22.18
2018-08-11T06:14:22.292Z,22.27
2018-08-11T06:15:22.352Z,22.42
2018-08-11T06:16:22.248Z,22.54
2018-08-11T06:17:22.283Z,22.52
2018-08-11T06:18:22.210Z,22.67
2018-08-11T06:19:22.186Z,22.76
2018-08-11T06:20:22.175Z,23.07
2018-08-11T06:21:22.154Z,23.32
2018-08-11T06:22:22.175Z,23.66
2018-08-11T06:23:22.108Z,23.93
2018-08-11T06:24:22.081Z,24.03
2018-08-11T06:25:22.061Z,24.08
2018-08-11T06:26:22.044Z,24.19
2018-08-11T06:27:22.297Z,24.22
2018-08-11T06:28:22.005Z,24.24
2018-08-11T06:29:22.738Z,24.19
2018-08-11T06:30:21.967Z,24.18
2018-08-11T06:31:22.006Z,24.15
2018-08-11T06:32:21.960Z,24.19
2018-08-11T06:33:21.901Z,24.22
2018-08-11T06:34:21.887Z,24.30
2018-08-11T06:35:21.856Z,24.29
2018-08-11T06:36:21.843Z,24.26
2018-08-11T06:37:21.864Z,24.27
2018-08-11T06:38:21.855Z,24.22
2018-08-11T06:39:21.781Z,24.29
2018-08-11T06:40:21.760Z,24.22
2018-08-11T06:41:21.743Z,23.92
2018-08-11T06:42:21.786Z,23.81
2018-08-11T06:43:21.701Z,23.85
2018-08-11T06:44:21.676Z,23.92
2018-08-11T06:45:21.657Z,23.90
2018-08-11T06:46:21.645Z,23.87
2018-08-11T06:47:21.671Z,23.93
2018-08-11T06:48:21.618Z,23.89
2018-08-11T06:49:21.581Z,23.79
2018-08-11T06:50:21.554Z,23.93
2018-08-11T06:51:21.535Z,23.99
2018-08-11T06:52:21.559Z,24.14
2018-08-11T06:53:21.544Z,24.15
2018-08-11T06:54:21.470Z,24.24
2018-08-11T06:55:21.453Z,24.14
2018-08-11T06:56:21.436Z,24.09
2018-08-11T06:57:21.412Z,24.24
2018-08-11T06:58:21.447Z,24.12
2018-08-11T06:59:21.411Z,24.30
2018-08-11T07:00:21.811Z,24.36
2018-08-11T07:01:21.334Z,24.56
2018-08-11T07:02:21.320Z,24.64
2018-08-11T07:03:21.295Z,24.89
2018-08-11T07:04:21.275Z,25.02
2018-08-11T07:05:21.304Z,25.15
2018-08-11T07:06:21.234Z,25.20
2018-08-11T07:07:21.213Z,25.27
2018-08-11T07:08:21.196Z,25.27
2018-08-11T07:09:21.230Z,25.32
2018-08-11T07:10:21.758Z,25.30
2018-08-11T07:11:21.149Z,25.33
2018-08-11T07:12:21.124Z,25.37
2018-08-11T07:13:21.095Z,25.42
2018-08-11T07:14:21.118Z,25.49
2018-08-11T07:15:21.381Z,25.54
2018-08-11T07:16:21.039Z,25.62
2018-08-11T07:17:21.025Z,25.57
2018-08-11T07:18:21.004Z,25.54
2018-08-11T07:19:21.034Z,25.59
2018-08-11T07:20:20.965Z,25.52
2018-08-11T07:21:20.992Z,25.57
2018-08-11T07:22:20.925Z,25.60
2018-08-11T07:23:20.928Z,25.63
2018-08-11T07:24:20.954Z,25.64
2018-08-11T07:25:20.911Z,25.78
2018-08-11T07:26:20.861Z,25.84
2018-08-11T07:27:20.830Z,25.88
2018-08-11T07:28:20.811Z,25.96
2018-08-11T07:29:20.789Z,25.86
2018-08-11T07:30:20.936Z,25.81
2018-08-11T07:31:20.758Z,25.88
2018-08-11T07:32:20.735Z,25.85
2018-08-11T07:33:20.759Z,25.85
2018-08-11T07:34:20.700Z,25.66
2018-08-11T07:35:20.741Z,25.64
2018-08-11T07:36:20.691Z,25.79
2018-08-11T07:37:20.640Z,25.62
2018-08-11T07:38:20.622Z,25.44
2018-08-11T07:39:20.614Z,25.22
2018-08-11T07:40:20.627Z,25.20
2018-08-11T07:41:20.569Z,25.20
2018-08-11T07:42:20.591Z,25.22
2018-08-11T07:43:20.544Z,25.26
2018-08-11T07:44:20.514Z,25.30
2018-08-11T07:45:20.499Z,25.37
2018-08-11T07:46:20.516Z,25.30
2018-08-11T07:47:20.458Z,25.23
2018-08-11T07:48:20.437Z,25.07
2018-08-11T07:49:20.426Z,24.86
2018-08-11T07:50:20.452Z,24.80
2018-08-11T07:51:20.432Z,24.63
2018-08-11T07:52:20.361Z,24.52
2018-08-11T07:53:20.350Z,24.34
2018-08-11T07:54:20.321Z,24.39
2018-08-11T07:55:20.308Z,24.26
2018-08-11T07:56:20.342Z,24.00
2018-08-11T07:57:20.265Z,24.09
2018-08-11T07:58:20.248Z,24.15
2018-08-11T07:59:20.235Z,24.27
2018-08-11T08:00:20.212Z,24.44
2018-08-11T08:01:20.297Z,24.48
2018-08-11T08:02:20.179Z,24.51
2018-08-11T08:03:20.154Z,24.36
2018-08-11T08:04:20.135Z,24.14
2018-08-11T08:05:20.114Z,24.26
2018-08-11T08:06:21.147Z,24.22
2018-08-11T08:07:20.116Z,24.46
2018-08-11T08:08:20.054Z,24.33
2018-08-11T08:09:20.077Z,24.26
2018-08-11T08:10:20.013Z,24.33
2018-08-11T08:11:20.000Z,24.37
2018-08-11T08:12:20.025Z,24.37
2018-08-11T08:13:19.970Z,24.34
2018-08-11T08:14:19.939Z,24.52
2018-08-11T08:15:19.916Z,24.52
2018-08-11T08:16:19.905Z,24.69
2018-08-11T08:17:19.927Z,24.67
2018-08-11T08:18:19.865Z,24.74
2018-08-11T08:19:19.841Z,24.71
2018-08-11T08:20:19.824Z,24.74
2018-08-11T08:21:19.808Z,24.80
2018-08-11T08:22:19.840Z,24.64
2018-08-11T08:23:19.772Z,24.75
2018-08-11T08:24:19.761Z,24.64
2018-08-11T08:25:19.778Z,24.82
2018-08-11T08:26:19.806Z,24.69
2018-08-11T08:27:19.689Z,24.74
2018-08-11T08:28:19.724Z,24.67
2018-08-11T08:29:19.653Z,24.85
2018-08-11T08:30:19.637Z,24.55
2018-08-11T08:31:19.613Z,24.39
2018-08-11T08:32:20.287Z,24.36
2018-08-11T08:33:19.631Z,24.36
2018-08-11T08:34:19.556Z,24.24
2018-08-11T08:35:19.538Z,24.14
2018-08-11T08:36:19.527Z,24.09
2018-08-11T08:37:20.287Z,24.14
2018-08-11T08:38:19.522Z,24.11
2018-08-11T08:39:19.461Z,24.17
2018-08-11T08:40:19.441Z,24.12
2018-08-11T08:41:19.426Z,24.02
2018-08-11T08:42:20.345Z,24.07
2018-08-11T08:43:19.424Z,24.12
2018-08-11T08:44:19.407Z,24.07
2018-08-11T08:45:19.345Z,24.21
2018-08-11T08:46:19.319Z,24.46
2018-08-11T08:47:19.316Z,24.69
2018-08-11T08:48:19.317Z,24.70
2018-08-11T08:49:19.322Z,25.02
2018-08-11T08:50:19.239Z,25.11
2018-08-11T08:51:19.220Z,24.97
2018-08-11T08:52:19.200Z,24.94
2018-08-11T08:53:19.247Z,24.96
2018-08-11T08:54:19.224Z,24.70
2018-08-11T08:55:19.145Z,24.77
2018-08-11T08:56:19.125Z,24.51
2018-08-11T08:57:19.105Z,24.66
2018-08-11T08:58:19.087Z,24.64
2018-08-11T08:59:19.155Z,24.61
2018-08-11T09:00:19.048Z,24.48
2018-08-11T09:01:19.031Z,24.40
2018-08-11T09:02:19.007Z,24.19
2018-08-11T09:03:19.016Z,23.79
2018-08-11T09:04:19.033Z,23.50
2018-08-11T09:05:18.955Z,23.47
2018-08-11T09:06:18.938Z,23.28
2018-08-11T09:07:18.915Z,23.41
2018-08-11T09:08:18.895Z,23.26
2018-08-11T09:09:18.946Z,23.37
2018-08-11T09:10:18.855Z,23.56
2018-08-11T09:11:18.833Z,23.66
2018-08-11T09:12:18.815Z,23.67
2018-08-11T09:13:18.799Z,23.67
2018-08-11T09:14:18.861Z,23.00
2018-08-11T09:15:18.843Z,22.86
2018-08-11T09:16:18.742Z,22.67
2018-08-11T09:17:18.714Z,22.67
2018-08-11T09:18:18.702Z,22.59
2018-08-11T09:19:18.748Z,22.60
2018-08-11T09:20:18.657Z,22.69
2018-08-11T09:21:18.639Z,22.88
2018-08-11T09:22:18.614Z,22.91
2018-08-11T09:23:18.596Z,22.91
2018-08-11T09:24:18.610Z,22.86
2018-08-11T09:25:18.595Z,22.91
2018-08-11T09:26:18.538Z,23.07
2018-08-11T09:27:18.531Z,23.48
2018-08-11T09:28:18.494Z,23.77
2018-08-11T09:29:18.557Z,23.93
2018-08-11T09:30:18.502Z,24.02
2018-08-11T09:31:18.445Z,24.11
2018-08-11T09:32:18.415Z,24.34
2018-08-11T09:33:18.396Z,24.64
2018-08-11T09:34:18.374Z,24.74
2018-08-11T09:35:18.397Z,24.90
2018-08-11T09:36:19.314Z,25.14
2018-08-11T09:37:18.372Z,25.11
2018-08-11T09:38:18.334Z,25.15
2018-08-11T09:39:18.278Z,25.01
2018-08-11T09:40:18.260Z,24.87
2018-08-11T09:41:18.799Z,24.74
2018-08-11T09:42:18.265Z,24.63
2018-08-11T09:43:18.203Z,24.56
2018-08-11T09:44:18.186Z,24.48
2018-08-11T09:45:18.158Z,24.33
2018-08-11T09:46:18.155Z,24.12
2018-08-11T09:47:18.171Z,24.15
2018-08-11T09:48:18.163Z,24.11
2018-08-11T09:49:18.132Z,24.14
2018-08-11T09:50:18.063Z,24.24
2018-08-11T09:51:18.802Z,24.17
2018-08-11T09:52:18.058Z,24.24
2018-08-11T09:53:18.061Z,24.29
2018-08-11T09:54:17.988Z,24.44
2018-08-11T09:55:17.968Z,24.37
2018-08-11T09:56:18.805Z,24.48
2018-08-11T09:57:17.924Z,24.63
2018-08-11T09:58:17.967Z,24.70
2018-08-11T09:59:17.887Z,24.69
2018-08-11T10:00:17.882Z,24.75
2018-08-11T10:01:18.804Z,24.86
2018-08-11T10:02:17.829Z,24.64
2018-08-11T10:03:17.854Z,24.67
2018-08-11T10:04:18.758Z,24.70
2018-08-11T10:05:17.776Z,24.71
2018-08-11T10:06:18.307Z,24.90
2018-08-11T10:07:17.731Z,24.78
2018-08-11T10:08:17.718Z,24.66
2018-08-11T10:09:17.737Z,24.69
2018-08-11T10:10:17.677Z,24.32
2018-08-11T10:11:17.660Z,24.00
2018-08-11T10:12:17.635Z,23.66
2018-08-11T10:13:17.668Z,23.29
2018-08-11T10:14:17.642Z,23.24
2018-08-11T10:15:17.577Z,23.12
2018-08-11T10:16:17.560Z,23.03
2018-08-11T10:17:17.544Z,22.94
2018-08-11T10:18:17.532Z,22.94
2018-08-11T10:19:17.537Z,23.04
2018-08-11T10:20:17.482Z,23.12
2018-08-11T10:21:17.455Z,23.19
2018-08-11T10:22:17.438Z,22.99
2018-08-11T10:23:17.414Z,23.16
2018-08-11T10:24:17.451Z,23.19
2018-08-11T10:25:17.387Z,22.89
2018-08-11T10:26:17.358Z,23.06
2018-08-11T10:27:17.333Z,23.41
2018-08-11T10:28:17.313Z,23.50
2018-08-11T10:29:17.335Z,23.21
2018-08-11T10:30:17.319Z,23.03
2018-08-11T10:31:17.256Z,22.89
2018-08-11T10:32:17.273Z,22.78
2018-08-11T10:33:17.215Z,22.88
2018-08-11T10:34:17.194Z,22.99
2018-08-11T10:35:17.218Z,23.22
2018-08-11T10:36:17.155Z,23.53
2018-08-11T10:37:17.174Z,23.74
2018-08-11T10:38:17.112Z,24.09
2018-08-11T10:39:17.091Z,23.87
2018-08-11T10:40:17.178Z,23.84
2018-08-11T10:41:17.058Z,23.79
2018-08-11T10:42:17.039Z,23.84
2018-08-11T10:43:17.056Z,24.02
2018-08-11T10:44:17.003Z,24.07
2018-08-11T10:45:16.975Z,23.94
2018-08-11T10:46:16.952Z,23.55
2018-08-11T10:47:16.986Z,23.44
2018-08-11T10:48:16.917Z,23.32
2018-08-11T10:49:16.891Z,23.19
2018-08-11T10:50:16.917Z,23.18
2018-08-11T10:51:16.912Z,22.78
2018-08-11T10:52:16.864Z,22.69
2018-08-11T10:53:16.812Z,22.45
2018-08-11T10:54:16.800Z,22.46
2018-08-11T10:55:16.775Z,22.66
2018-08-11T10:56:16.808Z,22.59
2018-08-11T10:57:16.729Z,22.69
2018-08-11T10:58:16.736Z,22.48
2018-08-11T10:59:16.737Z,22.52
2018-08-11T11:00:16.673Z,22.51
2018-08-11T11:01:16.705Z,22.44
2018-08-11T11:02:16.627Z,22.49
2018-08-11T11:03:16.614Z,22.41
2018-08-11T11:04:16.640Z,22.38
2018-08-11T11:05:16.561Z,22.26
2018-08-11T11:06:16.548Z,22.36
2018-08-11T11:07:17.232Z,22.46
2018-08-11T11:08:16.516Z,22.48
2018-08-11T11:09:16.522Z,22.45
2018-08-11T11:10:16.502Z,22.52
2018-08-11T11:11:16.436Z,22.46
2018-08-11T11:12:16.463Z,22.46
2018-08-11T11:13:16.394Z,22.48
2018-08-11T11:14:17.384Z,22.49
2018-08-11T11:15:16.397Z,22.70
2018-08-11T11:16:16.333Z,22.97
2018-08-11T11:17:16.314Z,23.38
2018-08-11T11:18:16.290Z,23.79
2018-08-11T11:19:16.264Z,23.92
2018-08-11T11:20:16.289Z,24.00
2018-08-11T11:21:16.223Z,23.92
2018-08-11T11:22:16.201Z,23.70
2018-08-11T11:23:16.181Z,23.48
2018-08-11T11:24:16.831Z,22.96
2018-08-11T11:25:16.190Z,22.84
2018-08-11T11:26:16.118Z,22.92
2018-08-11T11:27:16.095Z,22.81
2018-08-11T11:28:16.108Z,22.59
2018-08-11T11:29:16.835Z,22.48
2018-08-11T11:30:16.079Z,22.46
2018-08-11T11:31:16.011Z,22.34
2018-08-11T11:32:16.002Z,22.33
2018-08-11T11:33:15.969Z,22.46
2018-08-11T11:34:15.974Z,22.49
2018-08-11T11:35:15.988Z,22.51
2018-08-11T11:36:15.908Z,22.67
2018-08-11T11:37:15.931Z,22.85
2018-08-11T11:38:15.871Z,22.94
2018-08-11T11:39:15.854Z,22.73
2018-08-11T11:40:15.880Z,22.66
2018-08-11T11:41:15.807Z,22.52
2018-08-11T11:42:15.786Z,22.55
2018-08-11T11:43:15.803Z,22.59
2018-08-11T11:44:15.749Z,22.70
2018-08-11T11:45:15.785Z,22.76
2018-08-11T11:46:15.704Z,22.88
2018-08-11T11:47:15.672Z,22.94
2018-08-11T11:48:15.659Z,22.94
2018-08-11T11:49:15.632Z,22.94
2018-08-11T11:50:15.659Z,23.16
2018-08-11T11:51:15.590Z,23.03
2018-08-11T11:52:15.577Z,22.96
2018-08-11T11:53:15.590Z,22.92
2018-08-11T11:54:15.555Z,23.18
2018-08-11T11:55:15.508Z,23.50
2018-08-11T11:56:15.550Z,23.90
2018-08-11T11:57:15.475Z,24.22
2018-08-11T11:58:15.454Z,24.61
2018-08-11T11:59:15.431Z,24.80
2018-08-11T12:00:15.448Z,25.00
2018-08-11T12:01:15.443Z,25.20
2018-08-11T12:02:15.362Z,25.33
2018-08-11T12:03:15.349Z,25.17
2018-08-11T12:04:15.321Z,25.11
2018-08-11T12:05:15.316Z,24.78
2018-08-11T12:06:15.335Z,24.42
2018-08-11T12:07:15.267Z,23.89
2018-08-11T12:08:15.272Z,23.84
2018-08-11T12:09:15.222Z,23.90
2018-08-11T12:10:15.210Z,23.63
2018-08-11T12:11:15.227Z,23.71
2018-08-11T12:12:15.176Z,23.64
2018-08-11T12:13:15.139Z,23.60
2018-08-11T12:14:15.171Z,23.75
2018-08-11T12:15:15.125Z,23.64
2018-08-11T12:16:15.082Z,23.64
2018-08-11T12:17:15.105Z,23.78
2018-08-11T12:18:15.056Z,23.82
2018-08-11T12:19:15.025Z,23.78
2018-08-11T12:20:15.010Z,23.64
2018-08-11T12:21:14.982Z,23.67
2018-08-11T12:22:15.018Z,23.66
2018-08-11T12:23:14.939Z,23.42
2018-08-11T12:24:14.921Z,23.28
2018-08-11T12:25:14.897Z,23.29
2018-08-11T12:26:14.891Z,23.37
2018-08-11T12:27:14.904Z,23.44
2018-08-11T12:28:14.846Z,23.37
2018-08-11T12:29:14.869Z,23.29
2018-08-11T12:30:14.799Z,23.21
2018-08-11T12:31:14.853Z,23.19
2018-08-11T12:32:14.769Z,23.28
2018-08-11T12:33:14.736Z,23.34
2018-08-11T12:34:14.750Z,23.48
2018-08-11T12:35:14.743Z,23.64
2018-08-11T12:36:14.678Z,23.67
2018-08-11T12:37:14.652Z,23.52
2018-08-11T12:38:14.653Z,23.38
2018-08-11T12:39:14.610Z,23.40
2018-08-11T12:40:14.635Z,23.42
2018-08-11T12:41:14.570Z,23.45
2018-08-11T12:42:14.545Z,23.40
2018-08-11T12:43:14.549Z,23.59
2018-08-11T12:44:14.568Z,23.74
2018-08-11T12:45:14.538Z,23.90
2018-08-11T12:46:14.498Z,24.02
2018-08-11T12:47:14.461Z,24.22
2018-08-11T12:48:14.430Z,24.58
2018-08-11T12:49:14.402Z,24.78
2018-08-11T12:50:14.453Z,24.85
2018-08-11T12:51:14.362Z,25.08
2018-08-11T12:52:14.866Z,25.14